createdAt,value
2022-08-03T00:00:17.735Z,26.90
2022-08-03T00:03:10.384Z,25.50
2022-08-03T00:06:05.109Z,29.20
2022-08-03T00:08:58.432Z,30.30
2022-08-03T00:11:50.840Z,30.30
2022-08-03T00:14:44.454Z,31.00
2022-08-03T00:17:52.341Z,31.80
2022-08-03T00:20:46.085Z,27.70
2022-08-03T00:23:51.837Z,29.60
2022-08-03T00:26:47.352Z,29.20
2022-08-03T00:29:59.488Z,26.80
2022-08-03T00:32:54.926Z,27.00
2022-08-03T00:35:51.041Z,27.60
2022-08-03T00:38:43.380Z,26.30
2022-08-03T00:41:35.672Z,25.80
2022-08-03T00:44:27.909Z,26.60
2022-08-03T00:47:20.043Z,28.20
2022-08-03T00:50:13.860Z,29.50
2022-08-03T00:53:07.942Z,29.30
2022-08-03T00:56:01.431Z,30.10
2022-08-03T00:58:58.146Z,27.60
2022-08-03T01:01:50.394Z,29.30
2022-08-03T01:04:42.887Z,28.90
2022-08-03T01:07:47.335Z,27.10
2022-08-03T01:10:50.202Z,27.30
2022-08-03T01:14:04.288Z,27.40
2022-08-03T01:17:03.580Z,27.50
2022-08-03T01:19:55.625Z,26.70
2022-08-03T01:23:11.944Z,27.20
2022-08-03T01:26:07.393Z,24.70
2022-08-03T01:29:10.952Z,26.70
2022-08-03T01:32:53.556Z,26.70
2022-08-03T01:35:27.954Z,26.20
2022-08-03T01:38:25.798Z,25.50
2022-08-03T01:41:22.655Z,26.00
2022-08-03T01:44:29.827Z,28.10
2022-08-03T01:47:23.531Z,27.90
2022-08-03T01:50:17.012Z,27.40
2022-08-03T01:53:14.884Z,27.90
2022-08-03T01:56:09.979Z,27.90
2022-08-03T01:59:04.568Z,27.90
2022-08-03T02:02:27.740Z,26.80
2022-08-03T02:05:13.166Z,26.60
2022-08-03T02:08:08.967Z,26.70
2022-08-03T02:11:03.491Z,26.40
2022-08-03T02:13:57.882Z,26.80
2022-08-03T02:16:44.582Z,26.90
2022-08-03T02:19:38.048Z,26.20
2022-08-03T02:22:26.183Z,26.10
2022-08-03T02:25:19.608Z,25.30
2022-08-03T02:28:18.654Z,28.70
2022-08-03T02:31:19.188Z,29.20
2022-08-03T02:34:17.796Z,28.80
2022-08-03T02:37:11.842Z,28.50
2022-08-03T02:40:09.128Z,25.70
2022-08-03T02:43:06.568Z,26.00
2022-08-03T02:45:58.943Z,25.50
2022-08-03T02:48:53.322Z,24.60
2022-08-03T02:51:48.589Z,26.30
2022-08-03T02:54:41.872Z,25.20
2022-08-03T02:57:36.347Z,27.00
2022-08-03T03:00:28.054Z,25.00
2022-08-03T03:03:22.030Z,24.60
2022-08-03T03:06:15.238Z,25.10
2022-08-03T03:09:07.896Z,25.70
2022-08-03T03:12:00.710Z,24.20
2022-08-03T03:14:53.038Z,26.90
2022-08-03T03:17:46.695Z,28.40
2022-08-03T03:20:42.403Z,27.80
2022-08-03T03:23:36.499Z,25.20
2022-08-03T03:26:29.172Z,25.20
2022-08-03T03:29:22.343Z,24.20
2022-08-03T03:31:54.636Z,24.80
2022-08-03T03:34:47.531Z,24.50
2022-08-03T03:37:40.213Z,23.60
2022-08-03T03:40:32.653Z,23.80
2022-08-03T03:43:26.227Z,23.40
2022-08-03T03:46:18.530Z,22.70
2022-08-03T03:49:11.782Z,23.00
2022-08-03T03:52:04.481Z,23.00
2022-08-03T03:55:00.829Z,24.70
2022-08-03T03:57:53.621Z,25.90
2022-08-03T04:00:46.561Z,26.40
2022-08-03T04:03:39.766Z,24.50
2022-08-03T04:07:04.608Z,22.80
2022-08-03T04:10:16.433Z,21.60
2022-08-03T04:13:11.135Z,22.30
2022-08-03T04:16:04.622Z,21.80
2022-08-03T04:19:03.191Z,21.50
2022-08-03T04:22:00.069Z,21.90
2022-08-03T04:24:56.810Z,23.10
2022-08-03T04:28:19.700Z,22.10
2022-08-03T04:31:09.560Z,22.90
2022-08-03T04:34:03.191Z,23.40
2022-08-03T04:37:01.175Z,22.30
2022-08-03T04:39:51.253Z,24.10
2022-08-03T04:42:45.469Z,25.40
2022-08-03T04:45:40.071Z,27.20
2022-08-03T04:48:32.552Z,25.30
2022-08-03T04:51:28.091Z,23.30
2022-08-03T04:54:16.231Z,23.00
2022-08-03T04:57:08.390Z,22.30
2022-08-03T05:00:04.272Z,22.70
2022-08-03T05:02:56.906Z,22.40
2022-08-03T05:05:50.926Z,21.60
2022-08-03T05:08:46.915Z,22.80
2022-08-03T05:11:41.753Z,22.00
2022-08-03T05:14:34.062Z,23.00
2022-08-03T05:17:26.948Z,26.10
2022-08-03T05:20:19.262Z,25.10
2022-08-03T05:23:11.605Z,25.50
2022-08-03T05:26:04.132Z,22.60
2022-08-03T05:28:56.405Z,23.50
2022-08-03T05:31:48.493Z,22.40
2022-08-03T05:34:40.958Z,23.70
2022-08-03T05:37:32.977Z,22.80
2022-08-03T05:40:25.513Z,24.60
2022-08-03T05:43:19.336Z,23.30
2022-08-03T05:46:13.179Z,24.90
2022-08-03T05:48:54.618Z,24.30
2022-08-03T05:51:47.527Z,24.70
2022-08-03T05:54:56.897Z,24.70
2022-08-03T05:57:50.197Z,24.90
2022-08-03T06:00:42.228Z,24.00
2022-08-03T06:03:34.242Z,24.80
2022-08-03T06:06:30.501Z,24.30
2022-08-03T06:09:24.318Z,26.30
2022-08-03T06:12:36.674Z,26.10
2022-08-03T06:15:28.910Z,29.30
2022-08-03T06:18:21.351Z,26.20
2022-08-03T06:21:15.198Z,25.20
2022-08-03T06:24:00.608Z,25.90
2022-08-03T06:26:55.013Z,25.40
2022-08-03T06:29:47.330Z,26.70
2022-08-03T06:32:39.789Z,26.10
2022-08-03T06:35:32.114Z,26.80
2022-08-03T06:38:27.129Z,27.10
2022-08-03T06:41:20.683Z,27.00
2022-08-03T06:44:05.768Z,28.20
2022-08-03T06:46:58.883Z,28.30
2022-08-03T06:50:14.295Z,31.50
2022-08-03T06:53:04.430Z,31.40
2022-08-03T06:55:56.975Z,28.90
2022-08-03T06:58:49.977Z,28.30
2022-08-03T07:01:42.275Z,27.90
2022-08-03T07:04:34.843Z,29.50
2022-08-03T07:07:20.824Z,28.60
2022-08-03T07:10:13.728Z,29.00
2022-08-03T07:12:59.908Z,28.20
2022-08-03T07:15:55.363Z,28.30
2022-08-03T07:18:49.309Z,27.80
2022-08-03T07:21:41.931Z,28.40
2022-08-03T07:24:34.086Z,29.40
2022-08-03T07:27:30.614Z,29.00
2022-08-03T07:30:22.815Z,28.70
2022-08-03T07:33:16.612Z,27.50
2022-08-03T07:36:00.763Z,28.10
2022-08-03T07:38:53.027Z,26.40
2022-08-03T07:41:44.041Z,24.90
2022-08-03T07:44:36.354Z,24.40
2022-08-03T07:47:34.942Z,25.80
2022-08-03T07:50:28.534Z,24.00
2022-08-03T07:53:20.589Z,23.60
2022-08-03T07:56:13.921Z,22.40
2022-08-03T07:59:06.282Z,21.80
2022-08-03T08:01:58.572Z,22.00
2022-08-03T08:04:51.028Z,21.10
2022-08-03T08:07:43.473Z,22.30
2022-08-03T08:10:37.944Z,21.40
2022-08-03T08:13:22.508Z,18.20
2022-08-03T08:15:54.564Z,17.80
2022-08-03T08:18:26.734Z,15.50
2022-08-03T08:21:19.390Z,19.80
2022-08-03T08:24:18.058Z,17.00
2022-08-03T08:27:12.553Z,16.80
2022-08-03T08:30:11.478Z,14.90
2022-08-03T08:33:05.153Z,11.30
2022-08-03T08:35:57.608Z,12.60
2022-08-03T08:38:50.216Z,11.30
2022-08-03T08:41:45.937Z,9.40
2022-08-03T08:44:39.597Z,10.50
2022-08-03T08:47:51.159Z,8.10
2022-08-03T08:50:29.788Z,7.50
2022-08-03T08:53:17.501Z,7.40
2022-08-03T08:56:10.693Z,8.50
2022-08-03T08:59:04.168Z,10.00
2022-08-03T09:02:00.146Z,11.90
2022-08-03T09:04:52.730Z,10.50
2022-08-03T09:07:45.807Z,7.80
2022-08-03T09:10:38.629Z,7.90
2022-08-03T09:13:31.626Z,9.00
2022-08-03T09:16:24.675Z,9.50
2022-08-03T09:19:18.172Z,7.30
2022-08-03T09:22:10.967Z,7.70
2022-08-03T09:25:24.199Z,8.00
2022-08-03T09:28:58.050Z,7.20
2022-08-03T09:31:37.066Z,7.80
2022-08-03T09:34:29.267Z,5.50
2022-08-03T09:37:28.075Z,5.80
2022-08-03T09:40:40.607Z,5.00
2022-08-03T09:43:48.475Z,4.70
2022-08-03T09:46:52.981Z,4.90
2022-08-03T09:49:57.319Z,2.40
2022-08-03T09:52:52.850Z,2.80
2022-08-03T09:56:36.493Z,4.40
2022-08-03T09:59:05.767Z,5.20
2022-08-03T10:02:00.078Z,5.70
2022-08-03T10:04:53.728Z,6.10
2022-08-03T10:07:47.033Z,4.90
2022-08-03T10:10:45.784Z,4.60
2022-08-03T10:13:39.453Z,4.00
2022-08-03T10:16:37.014Z,5.20
2022-08-03T10:19:29.167Z,3.90
2022-08-03T10:22:23.604Z,5.00
2022-08-03T10:25:17.537Z,5.30
2022-08-03T10:28:14.514Z,5.50
2022-08-03T10:31:08.556Z,4.80
2022-08-03T10:34:03.382Z,6.10
2022-08-03T10:37:01.316Z,4.60
2022-08-03T10:39:57.128Z,4.80
2022-08-03T10:42:50.934Z,5.20
2022-08-03T10:45:35.488Z,6.80
2022-08-03T10:48:18.922Z,6.30
2022-08-03T10:51:12.684Z,4.80
2022-08-03T10:54:05.239Z,5.90
2022-08-03T10:57:20.401Z,5.00
2022-08-03T11:00:06.474Z,6.00
2022-08-03T11:06:19.182Z,5.90
2022-08-03T11:09:21.592Z,6.40
2022-08-03T11:12:29.924Z,8.00
2022-08-03T11:15:36.301Z,7.90
2022-08-03T11:18:28.977Z,6.20
2022-08-03T11:21:21.189Z,6.90
2022-08-03T11:24:33.182Z,6.00
2022-08-03T11:27:27.059Z,6.20
2022-08-03T11:30:27.583Z,7.90
2022-08-03T11:33:32.007Z,5.10
2022-08-03T11:36:32.345Z,5.40
2022-08-03T11:39:38.776Z,5.60
2022-08-03T11:42:47.422Z,5.30
2022-08-03T11:45:40.147Z,6.30
2022-08-03T11:48:20.696Z,7.00
2022-08-03T11:51:25.604Z,6.70
2022-08-03T11:54:23.048Z,7.00
2022-08-03T11:59:01.383Z,7.40
2022-08-03T12:00:41.533Z,6.40
2022-08-03T12:03:36.367Z,5.90
2022-08-03T12:06:28.662Z,7.90
2022-08-03T12:09:21.173Z,6.10
2022-08-03T12:12:06.838Z,6.20
2022-08-03T12:14:59.482Z,5.50
2022-08-03T12:17:55.983Z,4.90
2022-08-03T12:20:51.162Z,6.20
2022-08-03T12:23:37.704Z,6.80
2022-08-03T12:26:32.010Z,6.50
2022-08-03T12:29:25.955Z,5.50
2022-08-03T12:32:19.269Z,5.90
2022-08-03T12:35:12.218Z,5.80
2022-08-03T12:38:04.777Z,6.00
2022-08-03T12:41:13.781Z,7.50
2022-08-03T12:44:08.072Z,6.30
2022-08-03T12:47:00.647Z,5.60
2022-08-03T12:49:54.324Z,5.30
2022-08-03T12:55:57.454Z,5.50
2022-08-03T12:58:51.572Z,6.50
2022-08-03T13:01:54.790Z,6.50
2022-08-03T13:04:40.552Z,6.20
2022-08-03T13:07:45.782Z,5.80
2022-08-03T13:10:38.339Z,6.60
2022-08-03T13:13:44.172Z,6.20
2022-08-03T13:16:36.430Z,8.00
2022-08-03T13:19:29.957Z,5.50
2022-08-03T13:22:23.687Z,6.50
2022-08-03T13:25:07.084Z,5.60
2022-08-03T13:28:03.219Z,5.90
2022-08-03T13:30:58.381Z,4.90
2022-08-03T13:33:50.528Z,6.10
2022-08-03T13:37:07.574Z,6.70
2022-08-03T13:39:59.443Z,6.40
2022-08-03T13:42:52.338Z,4.90
2022-08-03T13:45:49.390Z,7.20
2022-08-03T13:48:43.601Z,5.50
2022-08-03T13:51:36.040Z,7.40
2022-08-03T13:54:27.183Z,5.70
2022-08-03T13:58:04.604Z,4.60
2022-08-03T14:00:32.856Z,5.50
2022-08-03T14:03:17.685Z,5.40
2022-08-03T14:06:10.024Z,6.50
2022-08-03T14:09:02.717Z,5.10
2022-08-03T14:12:07.802Z,5.40
2022-08-03T14:15:01.523Z,5.20
2022-08-03T14:17:54.371Z,5.50
2022-08-03T14:20:54.268Z,4.50
2022-08-03T14:23:48.757Z,4.90
2022-08-03T14:26:40.909Z,8.40
2022-08-03T14:29:33.131Z,7.60
2022-08-03T14:32:13.790Z,7.20
2022-08-03T14:35:07.243Z,5.40
2022-08-03T14:37:59.278Z,4.50
2022-08-03T14:40:52.126Z,5.20
2022-08-03T14:44:01.579Z,4.90
2022-08-03T14:46:54.437Z,6.50
2022-08-03T14:50:37.035Z,5.20
2022-08-03T14:52:58.570Z,5.80
2022-08-03T14:55:51.921Z,6.80
2022-08-03T14:58:44.015Z,7.90
2022-08-03T15:02:04.342Z,6.00
2022-08-03T15:04:48.417Z,6.60
2022-08-03T15:07:40.627Z,5.60
2022-08-03T15:10:15.284Z,6.00
2022-08-03T15:13:07.316Z,5.40
2022-08-03T15:15:59.625Z,6.60
2022-08-03T15:18:51.811Z,6.20
2022-08-03T15:21:46.513Z,5.40
2022-08-03T15:24:39.645Z,5.50
2022-08-03T15:27:31.706Z,5.10
2022-08-03T15:30:23.919Z,6.10
2022-08-03T15:33:16.177Z,5.80
2022-08-03T15:36:01.287Z,4.80
2022-08-03T15:38:54.750Z,5.60
2022-08-03T15:41:39.594Z,7.50
2022-08-03T15:44:32.437Z,6.10
2022-08-03T15:47:24.639Z,6.10
2022-08-03T15:50:09.874Z,4.70
2022-08-03T15:53:02.150Z,6.00
2022-08-03T15:55:54.555Z,5.20
2022-08-03T15:59:09.483Z,6.40
2022-08-03T16:01:59.162Z,5.50
2022-08-03T16:04:52.319Z,5.80
2022-08-03T16:08:04.004Z,6.80
2022-08-03T16:10:57.135Z,7.10
2022-08-03T16:14:13.691Z,6.90
2022-08-03T16:17:02.471Z,5.50
2022-08-03T16:19:55.374Z,5.90
2022-08-03T16:22:50.882Z,7.00
2022-08-03T16:25:49.367Z,7.60
2022-08-03T16:28:41.623Z,5.50
2022-08-03T16:31:33.945Z,4.30
2022-08-03T16:34:26.108Z,4.00
2022-08-03T16:37:37.075Z,5.10
2022-08-03T16:40:22.793Z,5.30
2022-08-03T16:43:17.941Z,4.40
2022-08-03T16:46:11.194Z,6.20
2022-08-03T16:49:03.333Z,5.50
2022-08-03T16:51:55.887Z,6.30
2022-08-03T16:54:52.984Z,4.70
2022-08-03T16:57:59.710Z,6.70
2022-08-03T17:00:51.971Z,7.50
2022-08-03T17:04:01.819Z,4.90
2022-08-03T17:06:56.853Z,5.80
2022-08-03T17:09:38.774Z,6.50
2022-08-03T17:12:22.252Z,5.90
2022-08-03T17:15:18.819Z,5.70
2022-08-03T17:18:17.951Z,4.50
2022-08-03T17:21:16.965Z,6.60
2022-08-03T17:24:19.744Z,5.30
2022-08-03T17:28:41.834Z,17.40
2022-08-03T17:30:21.006Z,7.00
2022-08-03T17:33:20.219Z,4.20
2022-08-03T17:36:08.022Z,5.20
2022-08-03T17:39:00.912Z,4.90
2022-08-03T17:41:55.544Z,6.40
2022-08-03T17:44:49.097Z,4.90
2022-08-03T17:47:43.465Z,7.00
2022-08-03T17:50:43.794Z,5.90
2022-08-03T17:53:44.478Z,6.60
2022-08-03T17:56:44.635Z,5.80
2022-08-03T17:59:50.847Z,6.60
2022-08-03T18:02:47.596Z,6.30
2022-08-03T18:06:10.515Z,5.90
2022-08-03T18:08:55.921Z,6.40
2022-08-03T18:11:44.523Z,6.40
2022-08-03T18:14:57.140Z,8.00
2022-08-03T18:17:55.411Z,7.00
2022-08-03T18:20:54.730Z,8.40
2022-08-03T18:23:51.079Z,11.20
2022-08-03T18:26:48.479Z,13.50
2022-08-03T18:29:36.959Z,12.10
2022-08-03T18:32:31.095Z,12.80
2022-08-03T18:35:26.850Z,15.20
2022-08-03T18:38:42.838Z,16.70
2022-08-03T18:41:44.588Z,27.90
2022-08-03T18:44:54.193Z,20.90
2022-08-03T18:48:00.081Z,19.70
2022-08-03T18:51:01.004Z,16.90
2022-08-03T18:54:03.865Z,25.50
2022-08-03T18:57:01.064Z,23.10
2022-08-03T19:00:00.280Z,25.40
2022-08-03T19:03:02.529Z,30.10
2022-08-03T19:06:08.576Z,32.00
2022-08-03T19:09:19.603Z,23.90
2022-08-03T19:12:30.949Z,22.30
2022-08-03T19:15:37.100Z,20.70
2022-08-03T19:18:43.880Z,21.60
2022-08-03T19:21:26.415Z,20.20
2022-08-03T19:24:23.381Z,19.40
2022-08-03T19:27:27.150Z,21.30
2022-08-03T19:30:39.151Z,21.60
2022-08-03T19:33:55.721Z,19.60
2022-08-03T19:36:49.765Z,18.10
2022-08-03T19:39:43.500Z,13.60
2022-08-03T19:42:41.689Z,16.30
2022-08-03T19:46:04.832Z,16.10
2022-08-03T19:48:58.148Z,15.30
2022-08-03T19:52:02.950Z,15.90
2022-08-03T19:55:02.336Z,12.60
2022-08-03T19:57:57.338Z,12.60
2022-08-03T20:00:49.728Z,17.50
2022-08-03T20:03:43.466Z,15.10
2022-08-03T20:06:36.222Z,13.00
2022-08-03T20:09:30.500Z,13.50
2022-08-03T20:12:13.365Z,11.70
2022-08-03T20:15:07.263Z,12.00
2022-08-03T20:17:56.546Z,11.50
2022-08-03T20:20:55.801Z,10.00
2022-08-03T20:24:00.015Z,9.30
2022-08-03T20:26:57.962Z,9.40
2022-08-03T20:30:04.979Z,8.70
2022-08-03T20:32:31.453Z,11.10
2022-08-03T20:35:24.741Z,12.20
2022-08-03T20:38:17.605Z,11.40
2022-08-03T20:41:12.622Z,11.00
2022-08-03T20:44:05.463Z,11.30
2022-08-03T20:47:00.703Z,15.20
2022-08-03T20:49:53.911Z,10.60
2022-08-03T20:52:49.718Z,11.00
2022-08-03T20:55:47.641Z,9.40
2022-08-03T20:58:50.434Z,10.80
2022-08-03T21:01:44.367Z,11.00
2022-08-03T21:04:37.085Z,13.90
2022-08-03T21:08:03.948Z,12.70
2022-08-03T21:10:52.691Z,15.40
2022-08-03T21:13:52.206Z,11.80
2022-08-03T21:16:48.749Z,11.80
2022-08-03T21:19:51.871Z,13.80
2022-08-03T21:22:47.541Z,13.40
2022-08-03T21:25:42.799Z,13.20
2022-08-03T21:28:36.628Z,11.10
2022-08-03T21:31:29.065Z,11.70
2022-08-03T21:34:12.025Z,11.30
2022-08-03T21:36:54.575Z,11.30
2022-08-03T21:39:50.710Z,12.00
2022-08-03T21:42:45.624Z,13.60
2022-08-03T21:45:45.672Z,11.90
2022-08-03T21:48:41.675Z,14.30
2022-08-03T21:51:36.556Z,12.50
2022-08-03T21:54:34.832Z,13.00
2022-08-03T21:57:30.531Z,10.90
2022-08-03T22:00:24.337Z,11.70
2022-08-03T22:03:17.946Z,12.30
2022-08-03T22:06:19.614Z,12.60
2022-08-03T22:09:12.853Z,13.40
2022-08-03T22:12:05.905Z,15.10
2022-08-03T22:15:01.971Z,13.30
2022-08-03T22:17:55.517Z,14.40
2022-08-03T22:20:53.179Z,12.60
2022-08-03T22:23:48.271Z,12.80
2022-08-03T22:27:05.053Z,12.50
2022-08-03T22:29:58.319Z,13.70
2022-08-03T22:32:44.649Z,11.50
2022-08-03T22:35:47.450Z,12.30
2022-08-03T22:38:42.401Z,11.20
2022-08-03T22:41:34.777Z,15.30
2022-08-03T22:44:27.455Z,11.40
2022-08-03T22:47:23.065Z,12.10
2022-08-03T22:50:31.624Z,13.00
2022-08-03T22:53:10.977Z,14.30
2022-08-03T22:56:04.734Z,13.20
2022-08-03T22:58:54.063Z,10.60
2022-08-03T23:01:48.413Z,10.50
2022-08-03T23:04:42.397Z,11.10
2022-08-03T23:07:38.067Z,12.40
2022-08-03T23:10:36.867Z,13.30
2022-08-03T23:13:32.429Z,11.10
2022-08-03T23:16:29.345Z,14.00
2022-08-03T23:19:28.176Z,13.90
2022-08-03T23:22:27.686Z,12.60
2022-08-03T23:25:22.811Z,14.80
2022-08-03T23:28:05.660Z,12.30
2022-08-03T23:30:59.866Z,11.80
2022-08-03T23:34:16.474Z,11.30
2022-08-03T23:37:10.795Z,11.70
2022-08-03T23:40:04.865Z,14.50
2022-08-03T23:42:59.096Z,13.10
2022-08-03T23:45:53.096Z,13.00
2022-08-03T23:48:48.414Z,11.80
2022-08-03T23:51:50.801Z,15.00
2022-08-03T23:54:54.061Z,13.00
2022-08-03T23:58:02.163Z,13.90
